Guetersloh, Germany

10:53 PM CEST on March 31, 2015 (GMT +0200)
GT-Pavenstaedt | | Change Station
CLOSE
Current Station
Personal Weather Station
Location: Gütersloh, NORDRHEIN-WESTFALEN
Elevation: 240 ft
Nearby Weather Stations

Elev 240 ft 51.91 °N, 8.35 °E | Updated 36 seconds ago

Scattered Clouds
Scattered Clouds
43.9 °F
Feels Like 44 °F
N
2.0
Wind Variable Wind from SE
Gusts 4.9 mph

Today
High -- | Low -- °F
--% Chance of Precip.
Yesterday
High -- | Low -- °F
Precip. -- in
7:05 AM 7:58 PM
Waxing Gibbous, 88% visible
Pressure 29.68 in
Visibility 6.2 miles
Clouds Scattered Clouds 3200 ft
Windchill 44 °F
Dew Point 29 °F
Humidity 55%
Rainfall 0.60 in
Snow Depth Not available.
UV 0.0 out of 12
Pollen Not available.
Air Quality Not available.
Flu Activity Not available.
METAR EDLP 312050Z 26016G27KT 230V300 9999 SCT032 04/M02 Q1005 RMK ATIS IND

More Conditions Fewer Conditions

Pressure 29.68 in
Visibility 6.2 miles
Clouds Scattered Clouds 3200 ft
Windchill 44 °F
Dew Point 29 °F
Humidity 55%
Rainfall 0.60 in
Snow Depth Not available.
UV 0.0 out of 12
Pollen Not available.
Air Quality Not available.
Flu Activity Not available.
METAR EDLP 312050Z 26016G27KT 230V300 9999 SCT032 04/M02 Q1005 RMK ATIS IND

More Conditions Fewer Conditions

10-Day Weather Forecast

Almanac

Astronomy

Mar. 31, 2015 Rise Set
Actual Time
Civil Twilight
Nautical Twilight
Astronomical Twilight
Moon
Length of Visible Light
Length of Day
Tomorrow will be .
, % of the Moon is Illuminated

Today's Extremes

Country Highs Country Lows

Community

WunderPhotos

Upload Photos

1,809,826 photos uploaded!

WunderBlogs® & News

Nearby

Air Quality

  Air Quality AQ Index Pollutant
Not available.

Snow Depth

Station Depth Elevation

Earthquake Activity

City Distance Mag. Time & Date
Minimum magnitude displayed is 2.5.

Coastal Water Temperatures

Place Temperature

Stations

Nearby Weather Stations

Station Location Temp. Windchill Dew Point Humidity Wind Precip. Elev Updated Type